Time;durP1;ratioP1;P1;durP2;ratioP2;P2;SDS_P1;SDS_P2;PMS_P1;PMS_P2;Temp;Humidity;BMP_temperature;BMP_pressure;BME280_temperature;BME280_humidity;BME280_pressure;Samples;Min_cycle;Max_cycle;Signal;HPM_P1;HPM_P2
2023/12/30 00:01:44;;;;;;;11.00;2.17;;;;;9.80;100264.00;;;;5036980;28;20235;-70
2023/12/30 00:04:31;;;;;;;3.63;1.87;;;;;9.80;100277.00;;;;5039824;28;20672;-70
2023/12/30 00:07:18;;;;;;;4.77;2.13;;;;;9.50;100283.00;;;;5044348;28;20240;-70
2023/12/30 00:10:06;;;;;;;4.20;1.30;;;;;9.30;100282.00;;;;5043718;28;22304;-71
2023/12/30 00:12:54;;;;;;;5.17;1.60;;;;;9.20;100289.00;;;;5036370;28;20407;-69
2023/12/30 00:15:40;;;;;;;4.93;1.60;;;;;9.10;100297.00;;;;5038966;28;20236;-70
2023/12/30 00:18:27;;;;;;;3.33;1.70;;;;;9.00;100301.00;;;;5042608;28;20228;-71
2023/12/30 00:21:19;;;;;;;4.40;1.43;;;;;9.00;100308.00;;;;5044045;28;20225;-71
2023/12/30 00:24:07;;;;;;;6.70;1.63;;;;;9.00;100324.00;;;;5035288;28;20947;-71
2023/12/30 00:26:54;;;;;;;2.90;1.10;;;;;9.00;100307.00;;;;5040333;28;20239;-71
2023/12/30 00:29:40;;;;;;;1.90;1.33;;;;;8.90;100318.00;;;;5034074;28;20235;-70
2023/12/30 00:32:26;;;;;;;2.67;1.93;;;;;8.80;100325.00;;;;5033583;28;20736;-70
2023/12/30 00:35:13;;;;;;;1.73;1.30;;;;;8.70;100337.00;;;;5045463;28;20232;-70
2023/12/30 00:37:59;;;;;;;1.73;1.33;;;;;8.40;100360.00;;;;5044126;28;20251;-70
2023/12/30 00:40:47;;;;;;;4.10;1.10;;;;;8.00;100374.00;;;;5041922;28;20234;-69
2023/12/30 00:43:33;;;;;;;3.07;1.20;;;;;7.60;100367.00;;;;5042232;28;20233;-68
2023/12/30 00:46:20;;;;;;;1.17;1.10;;;;;7.50;100364.00;;;;5029560;28;20242;-71
2023/12/30 00:49:08;;;;;;;1.30;0.83;;;;;7.40;100361.00;;;;5039129;28;20278;-72
2023/12/30 00:51:55;;;;;;;0.97;0.93;;;;;7.40;100350.00;;;;5036566;28;20229;-71
2023/12/30 00:54:41;;;;;;;2.40;1.13;;;;;7.50;100351.00;;;;5038563;28;20237;-69
2023/12/30 00:57:37;;;;;;;1.40;0.87;;;;;7.50;100350.00;;;;5037634;28;20230;-71
2023/12/30 01:00:24;;;;;;;2.03;1.10;;;;;7.50;100365.00;;;;5039198;28;20232;-70
2023/12/30 01:03:10;;;;;;;3.07;0.90;;;;;7.50;100365.00;;;;5044018;28;20238;-71
2023/12/30 01:05:56;;;;;;;1.60;1.07;;;;;7.50;100381.00;;;;5038629;28;20849;-72
2023/12/30 01:08:42;;;;;;;0.70;0.70;;;;;7.60;100377.00;;;;5040293;28;20228;-71
2023/12/30 01:11:29;;;;;;;0.90;0.70;;;;;7.60;100387.00;;;;5036844;28;20248;-70
2023/12/30 01:14:16;;;;;;;2.13;1.03;;;;;7.50;100405.00;;;;5043309;28;20307;-73
2023/12/30 01:17:03;;;;;;;0.67;0.67;;;;;7.40;100388.00;;;;5044777;28;20230;-72
2023/12/30 01:19:50;;;;;;;0.80;0.80;;;;;7.30;100395.00;;;;5041234;28;20236;-72
2023/12/30 01:22:36;;;;;;;0.87;0.77;;;;;7.30;100401.00;;;;5043742;28;20276;-68
2023/12/30 01:25:22;;;;;;;2.87;0.83;;;;;7.30;100405.00;;;;5037504;28;20232;-72
2023/12/30 01:28:10;;;;;;;1.13;0.80;;;;;7.30;100380.00;;;;5040932;28;20244;-72
2023/12/30 01:30:58;;;;;;;2.90;1.00;;;;;7.30;100391.00;;;;5040409;28;20245;-71
2023/12/30 01:33:44;;;;;;;0.87;0.87;;;;;7.30;100402.00;;;;5039938;28;20233;-72
2023/12/30 01:36:31;;;;;;;1.70;1.03;;;;;7.30;100405.00;;;;5041530;28;20299;-71
2023/12/30 01:39:17;;;;;;;1.90;1.17;;;;;7.30;100402.00;;;;5044099;28;20228;-72
2023/12/30 01:42:04;;;;;;;0.90;0.80;;;;;7.30;100402.00;;;;5038786;28;20597;-70
2023/12/30 01:44:50;;;;;;;1.00;1.00;;;;;7.40;100416.00;;;;5032893;28;20252;-73
2023/12/30 01:47:38;;;;;;;0.90;0.90;;;;;7.50;100424.00;;;;5037372;28;20755;-71
2023/12/30 01:50:25;;;;;;;2.53;1.20;;;;;7.40;100436.00;;;;5033351;28;20234;-72
2023/12/30 01:53:11;;;;;;;2.03;0.80;;;;;7.40;100425.00;;;;5038672;28;20964;-72
2023/12/30 01:55:58;;;;;;;3.13;1.20;;;;;7.50;100421.00;;;;5032788;28;20235;-69
2023/12/30 01:58:45;;;;;;;1.83;1.00;;;;;7.50;100428.00;;;;5036798;28;20250;-68
2023/12/30 02:01:31;;;;;;;2.03;1.57;;;;;7.50;100430.00;;;;5037439;28;20237;-71
2023/12/30 02:04:19;;;;;;;1.37;1.10;;;;;7.50;100433.00;;;;5036716;28;20916;-71
2023/12/30 02:07:05;;;;;;;1.47;1.37;;;;;7.60;100432.00;;;;5037971;28;20680;-71
2023/12/30 02:09:52;;;;;;;1.40;1.30;;;;;7.60;100425.00;;;;5037887;28;20828;-71
2023/12/30 02:12:38;;;;;;;5.23;1.50;;;;;7.60;100442.00;;;;5037273;28;20296;-70
2023/12/30 02:15:25;;;;;;;3.13;1.10;;;;;7.50;100428.00;;;;5036565;28;20311;-71
2023/12/30 02:18:11;;;;;;;4.63;1.53;;;;;7.60;100433.00;;;;5039467;28;20233;-71
2023/12/30 02:20:59;;;;;;;2.43;1.50;;;;;7.50;100423.00;;;;5039877;28;20725;-72
2023/12/30 02:23:53;;;;;;;2.40;1.50;;;;;7.50;100430.00;;;;5044081;28;20253;-71
2023/12/30 02:26:39;;;;;;;1.00;1.00;;;;;7.50;100434.00;;;;5039480;28;20247;-71
2023/12/30 02:29:25;;;;;;;1.57;1.43;;;;;7.50;100436.00;;;;5036102;28;20229;-71
2023/12/30 02:32:12;;;;;;;1.80;1.40;;;;;7.40;100434.00;;;;5039063;28;20234;-70
2023/12/30 02:34:58;;;;;;;10.67;1.50;;;;;7.50;100428.00;;;;5040268;28;20233;-71
2023/12/30 02:37:45;;;;;;;4.50;1.40;;;;;7.50;100425.00;;;;5040090;28;20258;-71
2023/12/30 02:40:33;;;;;;;1.60;1.20;;;;;7.50;100430.00;;;;5042820;28;20842;-69
2023/12/30 02:43:19;;;;;;;2.27;1.07;;;;;7.40;100428.00;;;;5039092;28;20730;-71
2023/12/30 02:46:05;;;;;;;4.00;1.13;;;;;7.50;100429.00;;;;5042249;28;20237;-72
2023/12/30 02:48:52;;;;;;;7.50;1.60;;;;;7.60;100430.00;;;;5038049;28;20234;-70
2023/12/30 02:51:39;;;;;;;4.80;1.63;;;;;7.50;100437.00;;;;5041073;28;20864;-72
2023/12/30 02:54:25;;;;;;;6.00;1.50;;;;;7.50;100429.00;;;;5041374;28;20340;-69
2023/12/30 02:57:13;;;;;;;5.73;1.20;;;;;7.50;100438.00;;;;5042215;28;20657;-72
2023/12/30 02:59:59;;;;;;;3.77;1.30;;;;;7.60;100441.00;;;;5036254;28;20277;-70
2023/12/30 03:02:46;;;;;;;12.40;1.97;;;;;7.70;100443.00;;;;5042429;28;20782;-71
2023/12/30 03:05:32;;;;;;;9.17;2.07;;;;;7.70;100457.00;;;;5047248;28;20236;-73
2023/12/30 03:08:19;;;;;;;4.17;1.80;;;;;7.60;100454.00;;;;5039273;28;20231;-74
2023/12/30 03:11:05;;;;;;;7.60;1.83;;;;;7.60;100461.00;;;;5043876;28;20320;-71
2023/12/30 03:13:53;;;;;;;7.57;1.40;;;;;7.60;100458.00;;;;5043911;28;20273;-72
2023/12/30 03:16:40;;;;;;;4.10;1.90;;;;;7.60;100454.00;;;;5033798;28;20270;-71
2023/12/30 03:19:26;;;;;;;4.43;1.43;;;;;7.60;100450.00;;;;5046414;28;20709;-70
2023/12/30 03:22:12;;;;;;;7.20;1.63;;;;;7.60;100461.00;;;;5044850;28;20234;-70
2023/12/30 03:24:59;;;;;;;6.57;1.90;;;;;7.70;100467.00;;;;5041839;28;20235;-71
2023/12/30 03:27:45;;;;;;;3.67;1.37;;;;;7.70;100466.00;;;;5032220;28;20238;-71
2023/12/30 03:30:32;;;;;;;6.13;1.70;;;;;7.70;100462.00;;;;5035537;28;20226;-71
2023/12/30 03:33:19;;;;;;;4.63;2.07;;;;;7.80;100462.00;;;;5040030;28;20270;-71
2023/12/30 03:36:06;;;;;;;2.60;1.47;;;;;7.80;100451.00;;;;5035181;28;20230;-72
2023/12/30 03:38:54;;;;;;;3.67;2.23;;;;;7.80;100459.00;;;;5035359;28;20284;-71
2023/12/30 03:41:40;;;;;;;7.20;2.20;;;;;7.80;100465.00;;;;5046231;28;20229;-72
2023/12/30 03:44:26;;;;;;;6.40;1.50;;;;;7.90;100470.00;;;;5037365;28;20242;-70
2023/12/30 03:47:14;;;;;;;7.10;1.80;;;;;7.90;100466.00;;;;5046179;28;20309;-69
2023/12/30 03:50:00;;;;;;;4.50;1.47;;;;;7.90;100468.00;;;;5039257;28;20285;-73
2023/12/30 03:52:46;;;;;;;2.50;1.93;;;;;7.90;100461.00;;;;5038956;28;20322;-71
2023/12/30 03:55:33;;;;;;;6.43;1.80;;;;;7.90;100470.00;;;;5041238;28;20324;-70
2023/12/30 03:58:19;;;;;;;12.67;2.30;;;;;8.00;100464.00;;;;5041268;28;20350;-71
2023/12/30 04:01:06;;;;;;;4.20;1.80;;;;;8.00;100476.00;;;;5042864;28;20373;-70
2023/12/30 04:03:54;;;;;;;5.33;1.57;;;;;7.90;100466.00;;;;5045015;28;20336;-70
2023/12/30 04:06:40;;;;;;;8.10;2.20;;;;;7.80;100476.00;;;;5046053;28;20246;-72
2023/12/30 04:09:27;;;;;;;3.30;1.63;;;;;7.90;100480.00;;;;5037593;28;20286;-71
2023/12/30 04:12:13;;;;;;;2.13;1.77;;;;;7.90;100483.00;;;;5044120;28;20389;-70
2023/12/30 04:15:00;;;;;;;2.03;1.83;;;;;7.80;100487.00;;;;5044321;28;20242;-67
2023/12/30 04:17:46;;;;;;;12.47;1.93;;;;;7.80;100479.00;;;;5038066;28;20232;-72
2023/12/30 04:20:33;;;;;;;3.80;1.67;;;;;7.90;100495.00;;;;5044851;28;20233;-73
2023/12/30 04:23:20;;;;;;;2.77;1.53;;;;;7.90;100488.00;;;;5038411;28;20238;-72
2023/12/30 04:26:06;;;;;;;5.70;2.13;;;;;8.00;100481.00;;;;5045328;28;20723;-70
2023/12/30 04:28:53;;;;;;;4.43;1.70;;;;;8.00;100487.00;;;;5039927;28;20227;-72
2023/12/30 04:31:40;;;;;;;7.83;2.13;;;;;8.00;100490.00;;;;5036261;28;20225;-71
2023/12/30 04:34:26;;;;;;;3.43;1.60;;;;;8.10;100478.00;;;;5041565;28;20289;-70
2023/12/30 04:37:14;;;;;;;2.90;1.80;;;;;8.10;100490.00;;;;5040132;28;20304;-71
2023/12/30 04:40:00;;;;;;;7.80;1.63;;;;;8.00;100486.00;;;;5045101;28;20278;-71
2023/12/30 04:42:46;;;;;;;6.80;1.80;;;;;8.00;100487.00;;;;5036923;28;20233;-72
2023/12/30 04:45:32;;;;;;;4.93;1.90;;;;;7.90;100488.00;;;;5036772;28;20796;-71
2023/12/30 04:48:18;;;;;;;11.57;1.97;;;;;7.90;100502.00;;;;5041593;28;20322;-72
2023/12/30 04:51:06;;;;;;;4.60;1.80;;;;;7.80;100500.00;;;;5039202;28;20258;-70
2023/12/30 04:53:53;;;;;;;7.87;1.70;;;;;7.70;100510.00;;;;5033359;28;20231;-72
2023/12/30 04:56:40;;;;;;;6.93;2.20;;;;;7.70;100500.00;;;;5030825;28;20226;-73
2023/12/30 04:59:26;;;;;;;3.10;1.60;;;;;7.70;100511.00;;;;5044612;28;20356;-70
2023/12/30 05:02:13;;;;;;;5.40;1.90;;;;;7.70;100516.00;;;;5034068;28;20246;-73
2023/12/30 05:04:59;;;;;;;3.13;2.30;;;;;7.70;100509.00;;;;5035182;28;20235;-68
2023/12/30 05:07:45;;;;;;;4.13;1.70;;;;;7.60;100518.00;;;;5041118;28;20243;-72
2023/12/30 05:10:34;;;;;;;3.30;1.77;;;;;7.60;100510.00;;;;5043382;28;20307;-68
2023/12/30 05:13:20;;;;;;;10.53;2.43;;;;;7.50;100526.00;;;;5043947;28;20358;-71
2023/12/30 05:16:07;;;;;;;2.57;1.53;;;;;7.50;100514.00;;;;5044602;28;20230;-72
2023/12/30 05:18:53;;;;;;;6.33;2.20;;;;;7.50;100523.00;;;;5038348;28;20320;-71
2023/12/30 05:21:40;;;;;;;3.23;1.97;;;;;7.50;100528.00;;;;5040993;28;20238;-70
2023/12/30 05:24:27;;;;;;;6.27;2.07;;;;;7.60;100527.00;;;;5043555;28;20273;-72
2023/12/30 05:27:18;;;;;;;7.50;2.10;;;;;7.50;100532.00;;;;5044755;28;20230;-72
2023/12/30 05:30:05;;;;;;;6.20;2.00;;;;;7.50;100535.00;;;;5039535;28;20249;-73
2023/12/30 05:32:51;;;;;;;2.10;1.50;;;;;7.40;100540.00;;;;5037116;28;20241;-72
2023/12/30 05:35:38;;;;;;;2.90;1.97;;;;;7.50;100547.00;;;;5039298;28;20474;-70
2023/12/30 05:38:24;;;;;;;5.40;2.03;;;;;7.50;100540.00;;;;5041980;28;20229;-70
2023/12/30 05:41:10;;;;;;;4.70;1.83;;;;;7.50;100552.00;;;;5039783;28;20229;-71
2023/12/30 05:43:58;;;;;;;5.37;1.83;;;;;7.50;100548.00;;;;5037296;28;20261;-71
2023/12/30 05:46:45;;;;;;;6.70;2.13;;;;;7.50;100549.00;;;;5042182;28;20658;-69
2023/12/30 05:49:31;;;;;;;3.27;1.80;;;;;7.50;100545.00;;;;5042370;28;20791;-71
2023/12/30 05:52:17;;;;;;;3.63;2.00;;;;;7.40;100548.00;;;;5040061;28;20622;-70
2023/12/30 05:55:04;;;;;;;4.10;1.87;;;;;7.40;100558.00;;;;5029668;28;20586;-67
2023/12/30 05:57:51;;;;;;;4.47;1.90;;;;;7.40;100553.00;;;;5037802;28;20286;-71
2023/12/30 06:00:38;;;;;;;6.63;1.87;;;;;7.30;100562.00;;;;5027393;28;20226;-68
2023/12/30 06:03:24;;;;;;;6.50;1.90;;;;;7.30;100567.00;;;;5032548;28;20274;-70
2023/12/30 06:06:11;;;;;;;6.37;2.00;;;;;7.30;100572.00;;;;5040360;28;20793;-72
2023/12/30 06:08:57;;;;;;;5.67;1.60;;;;;7.30;100570.00;;;;5034728;28;20373;-70
2023/12/30 06:11:43;;;;;;;4.63;1.77;;;;;7.30;100568.00;;;;5042577;28;20869;-72
2023/12/30 06:14:30;;;;;;;1.83;1.60;;;;;7.30;100582.00;;;;5041485;28;20283;-71
2023/12/30 06:17:17;;;;;;;5.77;2.07;;;;;7.30;100595.00;;;;5039595;28;20344;-71
2023/12/30 06:20:05;;;;;;;5.43;1.90;;;;;7.30;100591.00;;;;5041971;28;20226;-71
2023/12/30 06:22:51;;;;;;;1.70;1.47;;;;;7.50;100591.00;;;;5033496;28;20242;-68
2023/12/30 06:25:38;;;;;;;11.17;2.37;;;;;7.50;100587.00;;;;5042362;28;20258;-70
2023/12/30 06:28:26;;;;;;;3.13;1.67;;;;;7.60;100593.00;;;;5040462;28;20301;-72
2023/12/30 06:31:12;;;;;;;2.93;1.40;;;;;7.60;100594.00;;;;5043553;28;20449;-71
2023/12/30 06:34:00;;;;;;;5.67;2.33;;;;;7.60;100603.00;;;;5045571;28;20244;-72
2023/12/30 06:36:47;;;;;;;2.83;1.73;;;;;7.60;100593.00;;;;5047656;28;20236;-72
2023/12/30 06:39:34;;;;;;;8.43;1.73;;;;;7.60;100604.00;;;;5045536;28;20313;-72
2023/12/30 06:42:20;;;;;;;1.87;1.27;;;;;7.70;100610.00;;;;5043293;28;20977;-71
2023/12/30 06:45:07;;;;;;;6.93;1.90;;;;;7.60;100594.00;;;;5032871;28;20840;-71
2023/12/30 06:47:53;;;;;;;1.87;1.60;;;;;7.70;100609.00;;;;5039659;28;20288;-71
2023/12/30 06:50:41;;;;;;;10.93;1.97;;;;;7.70;100615.00;;;;5046238;28;20233;-67
2023/12/30 06:53:30;;;;;;;11.40;2.07;;;;;7.60;100615.00;;;;5046451;28;20234;-71
2023/12/30 06:56:17;;;;;;;8.67;1.93;;;;;7.60;100610.00;;;;5046391;28;20298;-70
2023/12/30 06:59:03;;;;;;;4.23;1.67;;;;;7.60;100592.00;;;;5042564;28;20337;-69
2023/12/30 07:01:50;;;;;;;2.30;1.57;;;;;7.70;100617.00;;;;5037757;28;20241;-72
2023/12/30 07:04:36;;;;;;;6.40;1.40;;;;;7.70;100621.00;;;;5041693;28;20244;-72
2023/12/30 07:07:24;;;;;;;4.53;1.70;;;;;7.70;100615.00;;;;5040897;28;20264;-73
2023/12/30 07:10:11;;;;;;;3.00;1.57;;;;;7.70;100623.00;;;;5038357;28;20247;-72
2023/12/30 07:12:57;;;;;;;9.10;1.50;;;;;7.70;100626.00;;;;5040115;28;20230;-71
2023/12/30 07:15:43;;;;;;;15.63;1.70;;;;;7.70;100626.00;;;;5042656;28;20357;-73
2023/12/30 07:18:29;;;;;;;4.87;1.67;;;;;7.70;100633.00;;;;5045621;28;20303;-71
2023/12/30 07:21:16;;;;;;;1.97;1.33;;;;;7.70;100635.00;;;;5042594;28;20228;-71
2023/12/30 07:24:04;;;;;;;2.17;1.23;;;;;7.70;100639.00;;;;5038992;28;20265;-72
2023/12/30 07:26:50;;;;;;;5.03;1.60;;;;;7.70;100647.00;;;;5042546;28;20932;-72
2023/12/30 07:29:36;;;;;;;4.43;2.27;;;;;7.80;100626.00;;;;5037730;28;20225;-72
2023/12/30 07:32:23;;;;;;;3.77;2.07;;;;;7.80;100638.00;;;;5045133;28;20357;-72
2023/12/30 07:35:09;;;;;;;4.27;1.43;;;;;7.80;100659.00;;;;5038470;28;20589;-72
2023/12/30 07:37:56;;;;;;;2.70;1.57;;;;;7.80;100659.00;;;;5042088;28;20233;-74
2023/12/30 07:40:44;;;;;;;6.73;2.20;;;;;7.80;100660.00;;;;5039155;28;20234;-72
2023/12/30 07:43:30;;;;;;;5.33;2.13;;;;;7.90;100650.00;;;;5038629;28;20231;-72
2023/12/30 07:46:17;;;;;;;4.23;1.93;;;;;7.80;100655.00;;;;5042428;28;20273;-72
2023/12/30 07:49:04;;;;;;;4.87;1.60;;;;;7.80;100654.00;;;;5036992;28;20224;-71
2023/12/30 07:51:53;;;;;;;6.83;1.60;;;;;7.90;100656.00;;;;5033180;28;20235;-71
2023/12/30 07:54:39;;;;;;;6.47;2.27;;;;;7.80;100668.00;;;;5038918;28;20785;-70
2023/12/30 07:57:26;;;;;;;10.40;2.13;;;;;8.00;100660.00;;;;5037661;28;20228;-71
2023/12/30 08:00:14;;;;;;;7.90;2.07;;;;;8.00;100661.00;;;;5039894;28;20236;-71
2023/12/30 08:03:00;;;;;;;8.77;2.33;;;;;7.90;100664.00;;;;5037681;28;20233;-71
2023/12/30 08:05:47;;;;;;;5.53;1.87;;;;;7.90;100664.00;;;;5045424;28;20285;-70
2023/12/30 08:08:33;;;;;;;4.77;2.10;;;;;7.80;100665.00;;;;5046223;28;20235;-69
2023/12/30 08:11:19;;;;;;;7.13;2.13;;;;;7.80;100664.00;;;;5030915;28;20310;-72
2023/12/30 08:14:07;;;;;;;7.20;2.20;;;;;7.90;100663.00;;;;5040114;28;20354;-71
2023/12/30 08:16:53;;;;;;;4.37;1.63;;;;;7.90;100666.00;;;;5043534;28;20257;-69
2023/12/30 08:19:40;;;;;;;7.07;1.90;;;;;8.00;100659.00;;;;5045596;28;20235;-71
2023/12/30 08:22:27;;;;;;;3.90;1.83;;;;;8.00;100672.00;;;;5040223;28;20723;-71
2023/12/30 08:25:13;;;;;;;5.57;1.87;;;;;8.00;100687.00;;;;5039386;28;20301;-70
2023/12/30 08:28:00;;;;;;;5.80;2.10;;;;;8.00;100689.00;;;;5037808;28;20227;-70
2023/12/30 08:30:47;;;;;;;6.10;1.87;;;;;8.00;100689.00;;;;5036821;28;20231;-71
2023/12/30 08:33:34;;;;;;;12.67;1.83;;;;;8.00;100693.00;;;;5041303;28;20760;-71
2023/12/30 08:36:21;;;;;;;7.70;1.53;;;;;8.00;100689.00;;;;5026393;28;20666;-71
2023/12/30 08:39:08;;;;;;;2.57;1.20;;;;;8.10;100687.00;;;;5035765;28;20228;-71
2023/12/30 08:41:54;;;;;;;6.10;2.50;;;;;8.20;100682.00;;;;5034801;28;20306;-72
2023/12/30 08:44:43;;;;;;;4.93;1.50;;;;;8.10;100691.00;;;;5039232;28;20314;-70
2023/12/30 08:47:34;;;;;;;5.00;1.60;;;;;8.20;100687.00;;;;5038510;28;20236;-71
2023/12/30 08:50:20;;;;;;;4.30;1.50;;;;;8.20;100692.00;;;;5039381;28;20328;-72
2023/12/30 08:53:07;;;;;;;4.80;1.40;;;;;8.30;100689.00;;;;5038327;28;20229;-71
2023/12/30 08:55:54;;;;;;;8.07;2.40;;;;;8.30;100688.00;;;;5033260;28;20606;-70
2023/12/30 08:58:41;;;;;;;11.57;1.67;;;;;8.40;100699.00;;;;5042077;28;20398;-72
2023/12/30 09:01:27;;;;;;;3.77;1.60;;;;;8.40;100706.00;;;;5031723;28;20240;-72
2023/12/30 09:04:15;;;;;;;3.90;1.30;;;;;8.40;100716.00;;;;5041163;28;20632;-71
2023/12/30 09:07:01;;;;;;;1.20;1.10;;;;;8.40;100720.00;;;;5044825;28;20236;-68
2023/12/30 09:09:47;;;;;;;3.37;1.50;;;;;8.50;100720.00;;;;5034897;28;20312;-71
2023/12/30 09:12:33;;;;;;;7.50;1.57;;;;;8.50;100723.00;;;;5043512;28;20224;-70
2023/12/30 09:15:20;;;;;;;1.63;1.50;;;;;8.50;100731.00;;;;5037047;28;20234;-70
2023/12/30 09:18:06;;;;;;;4.50;1.90;;;;;8.50;100740.00;;;;5040472;28;20625;-72
2023/12/30 09:20:58;;;;;;;3.67;1.30;;;;;8.60;100745.00;;;;5035457;28;20227;-72
2023/12/30 09:23:44;;;;;;;6.93;2.00;;;;;8.60;100744.00;;;;5044022;28;20258;-71
2023/12/30 09:26:30;;;;;;;4.57;2.27;;;;;8.60;100737.00;;;;5036330;28;20248;-71
2023/12/30 09:29:17;;;;;;;3.60;1.80;;;;;8.60;100745.00;;;;5037774;28;20267;-72
2023/12/30 09:32:04;;;;;;;7.57;2.60;;;;;8.60;100760.00;;;;5053066;28;20222;-71
2023/12/30 09:34:50;;;;;;;4.03;1.73;;;;;8.60;100757.00;;;;5042613;28;20490;-72
2023/12/30 09:37:38;;;;;;;2.43;1.73;;;;;8.60;100765.00;;;;5041681;28;20233;-71
2023/12/30 09:40:26;;;;;;;4.53;2.13;;;;;8.80;100773.00;;;;5036078;28;20231;-73
2023/12/30 09:43:14;;;;;;;6.37;2.03;;;;;8.80;100773.00;;;;5037011;28;20724;-71
2023/12/30 09:46:01;;;;;;;3.07;1.77;;;;;8.80;100779.00;;;;5047949;28;20331;-72
2023/12/30 09:48:52;;;;;;;5.07;1.67;;;;;8.80;100764.00;;;;5036571;28;20244;-72
2023/12/30 09:51:38;;;;;;;7.73;2.23;;;;;8.90;100771.00;;;;5034097;28;20236;-73
2023/12/30 09:54:27;;;;;;;3.47;2.10;;;;;9.00;100781.00;;;;5039499;28;20307;-73
2023/12/30 09:57:30;;;;;;;2.70;1.97;;;;;9.00;100777.00;;;;5039208;28;20354;-71
2023/12/30 10:00:19;;;;;;;4.87;2.07;;;;;9.10;100779.00;;;;5047561;28;20231;-72
2023/12/30 10:03:07;;;;;;;5.23;2.23;;;;;9.10;100761.00;;;;5044458;28;20297;-72
2023/12/30 10:05:55;;;;;;;7.90;2.30;;;;;9.10;100760.00;;;;5048812;28;20236;-70
2023/12/30 10:08:42;;;;;;;6.97;1.83;;;;;9.10;100759.00;;;;5056303;28;20236;-73
2023/12/30 10:11:30;;;;;;;6.47;2.43;;;;;9.10;100752.00;;;;5041906;28;20736;-72
2023/12/30 10:14:17;;;;;;;11.57;2.43;;;;;9.20;100745.00;;;;5039226;28;20234;-72
2023/12/30 10:17:04;;;;;;;7.00;2.37;;;;;9.20;100748.00;;;;5054091;28;20733;-72
2023/12/30 10:19:50;;;;;;;5.23;1.90;;;;;9.20;100748.00;;;;5043023;28;20236;-73
2023/12/30 10:22:37;;;;;;;6.73;2.03;;;;;9.20;100751.00;;;;5056884;28;20235;-72
2023/12/30 10:25:23;;;;;;;4.73;2.07;;;;;9.10;100765.00;;;;5044587;28;20722;-73
2023/12/30 10:28:11;;;;;;;4.97;1.63;;;;;9.10;100766.00;;;;5054405;28;20228;-71
2023/12/30 10:31:02;;;;;;;4.53;1.80;;;;;9.10;100756.00;;;;5038932;28;20958;-72
2023/12/30 10:33:49;;;;;;;8.73;2.50;;;;;9.20;100769.00;;;;5048216;28;20262;-72
2023/12/30 10:36:36;;;;;;;6.73;2.23;;;;;9.20;100764.00;;;;5045925;28;20240;-70
2023/12/30 10:39:23;;;;;;;5.40;1.80;;;;;9.30;100765.00;;;;5046926;28;20230;-71
2023/12/30 10:42:10;;;;;;;6.13;2.27;;;;;9.20;100764.00;;;;5048668;28;20300;-71
2023/12/30 10:44:58;;;;;;;6.07;2.47;;;;;9.30;100755.00;;;;5051202;28;20708;-71
2023/12/30 10:47:48;;;;;;;6.60;2.07;;;;;9.40;100753.00;;;;5054683;28;20278;-72
2023/12/30 10:50:38;;;;;;;3.70;2.00;;;;;9.30;100760.00;;;;5047706;28;20595;-73
2023/12/30 10:53:28;;;;;;;7.70;1.83;;;;;9.40;100743.00;;;;5046953;28;20327;-72
2023/12/30 10:56:23;;;;;;;5.30;2.50;;;;;9.40;100753.00;;;;5054534;28;20233;-71
2023/12/30 10:59:12;;;;;;;4.80;2.57;;;;;9.40;100760.00;;;;5035831;28;20245;-72
2023/12/30 11:02:00;;;;;;;5.13;2.03;;;;;9.40;100752.00;;;;5045543;28;20676;-71
2023/12/30 11:04:48;;;;;;;6.90;1.83;;;;;9.40;100750.00;;;;5050866;28;20323;-72
2023/12/30 11:07:34;;;;;;;8.07;2.47;;;;;9.40;100751.00;;;;5045722;28;20226;-72
2023/12/30 11:10:21;;;;;;;8.20;2.27;;;;;9.40;100749.00;;;;5040099;28;20307;-71
2023/12/30 11:13:08;;;;;;;6.13;1.97;;;;;9.50;100736.00;;;;5042271;28;20232;-72
2023/12/30 11:15:55;;;;;;;15.80;2.97;;;;;9.40;100732.00;;;;5041400;28;20296;-68
2023/12/30 11:18:50;;;;;;;5.87;2.03;;;;;9.40;100746.00;;;;5044958;28;20232;-72
2023/12/30 11:21:38;;;;;;;9.93;2.10;;;;;9.40;100743.00;;;;5036587;28;20333;-74
2023/12/30 11:24:26;;;;;;;5.80;2.47;;;;;9.50;100748.00;;;;5032519;28;20232;-72
2023/12/30 11:27:12;;;;;;;6.33;1.80;;;;;9.50;100753.00;;;;5047493;28;20812;-72
2023/12/30 11:29:59;;;;;;;5.20;2.23;;;;;9.50;100754.00;;;;5059521;28;20236;-72
2023/12/30 11:32:46;;;;;;;6.30;2.20;;;;;9.60;100753.00;;;;5049079;28;20252;-72
2023/12/30 11:35:34;;;;;;;4.87;1.90;;;;;9.60;100755.00;;;;5053064;28;20223;-72
2023/12/30 11:38:22;;;;;;;3.77;2.23;;;;;9.60;100749.00;;;;5036533;28;20332;-71
2023/12/30 11:41:08;;;;;;;6.53;2.33;;;;;9.60;100743.00;;;;5045888;28;20264;-72
2023/12/30 11:43:55;;;;;;;4.57;1.77;;;;;9.70;100736.00;;;;5051944;28;20225;-71
2023/12/30 11:46:41;;;;;;;5.97;1.73;;;;;9.60;100735.00;;;;5036012;28;20224;-71
2023/12/30 11:49:28;;;;;;;5.80;2.33;;;;;9.70;100724.00;;;;5039269;28;20232;-73
2023/12/30 11:52:16;;;;;;;6.10;1.77;;;;;9.60;100715.00;;;;5040939;28;20221;-71
2023/12/30 11:55:02;;;;;;;6.10;1.83;;;;;9.80;100717.00;;;;5027972;28;20228;-71
2023/12/30 11:57:48;;;;;;;5.00;2.67;;;;;9.80;100712.00;;;;5041381;28;20249;-71
2023/12/30 12:00:35;;;;;;;10.17;2.40;;;;;9.80;100710.00;;;;5034737;28;20280;-70
2023/12/30 12:03:22;;;;;;;4.03;2.33;;;;;9.80;100704.00;;;;5039528;28;20255;-71
2023/12/30 12:06:10;;;;;;;3.30;2.13;;;;;9.80;100710.00;;;;5041907;28;20362;-72
2023/12/30 12:08:57;;;;;;;9.30;2.13;;;;;9.80;100705.00;;;;5042110;28;20236;-71
2023/12/30 12:11:44;;;;;;;7.00;2.40;;;;;9.80;100705.00;;;;5034851;28;20225;-72
2023/12/30 12:14:30;;;;;;;17.07;2.93;;;;;9.80;100716.00;;;;5038370;28;20225;-72
2023/12/30 12:17:18;;;;;;;6.40;2.37;;;;;9.90;100702.00;;;;5044263;28;20232;-71
2023/12/30 12:20:10;;;;;;;7.10;2.37;;;;;9.90;100685.00;;;;5037507;28;21164;-72
2023/12/30 12:22:57;;;;;;;4.33;2.43;;;;;10.00;100693.00;;;;5045404;28;20783;-71
2023/12/30 12:25:46;;;;;;;10.70;2.63;;;;;9.90;100697.00;;;;5042431;28;20232;-72
2023/12/30 12:28:34;;;;;;;7.37;2.40;;;;;9.90;100683.00;;;;5039214;28;20360;-72
2023/12/30 12:31:21;;;;;;;5.87;2.50;;;;;10.00;100684.00;;;;5041434;28;20229;-75
2023/12/30 12:34:20;;;;;;;7.50;2.77;;;;;10.00;100688.00;;;;5044902;28;20232;-72
2023/12/30 12:37:07;;;;;;;10.50;2.50;;;;;10.00;100688.00;;;;5039042;28;20233;-74
2023/12/30 12:39:53;;;;;;;5.53;2.60;;;;;10.00;100684.00;;;;5037580;28;20290;-73
2023/12/30 12:42:41;;;;;;;11.00;3.53;;;;;10.00;100682.00;;;;5037785;28;20287;-72
2023/12/30 12:45:27;;;;;;;11.33;2.97;;;;;10.00;100682.00;;;;5042670;28;20255;-71
2023/12/30 12:48:16;;;;;;;6.43;2.57;;;;;10.00;100677.00;;;;5042670;28;20716;-71
2023/12/30 12:51:03;;;;;;;13.30;3.23;;;;;10.00;100676.00;;;;5041904;28;20256;-70
2023/12/30 12:53:49;;;;;;;14.80;3.47;;;;;10.00;100672.00;;;;5039862;28;20248;-71
2023/12/30 12:56:36;;;;;;;5.63;3.20;;;;;10.00;100673.00;;;;5040983;28;20597;-72
2023/12/30 12:59:23;;;;;;;7.30;2.87;;;;;10.10;100679.00;;;;5045535;28;21027;-72
2023/12/30 13:02:10;;;;;;;9.70;3.33;;;;;10.10;100678.00;;;;5035269;28;20717;-72
2023/12/30 13:04:56;;;;;;;5.13;2.60;;;;;10.10;100679.00;;;;5042724;28;20874;-71
2023/12/30 13:07:43;;;;;;;6.87;2.83;;;;;10.20;100672.00;;;;5035021;28;20232;-71
2023/12/30 13:10:45;;;;;;;11.90;3.07;;;;;10.20;100672.00;;;;5037287;28;20299;-73
2023/12/30 13:13:32;;;;;;;7.37;3.03;;;;;10.20;100672.00;;;;5041239;28;20232;-70
2023/12/30 13:16:19;;;;;;;7.77;3.10;;;;;10.20;100655.00;;;;5041704;28;20764;-71
2023/12/30 13:19:06;;;;;;;8.63;2.93;;;;;10.20;100658.00;;;;5043872;28;20785;-71
2023/12/30 13:21:53;;;;;;;6.27;3.00;;;;;10.30;100660.00;;;;5036345;28;20253;-71
2023/12/30 13:24:39;;;;;;;7.63;2.70;;;;;10.30;100651.00;;;;5037150;28;20302;-70
2023/12/30 13:27:28;;;;;;;7.03;2.80;;;;;10.20;100655.00;;;;5036412;28;20233;-70
2023/12/30 13:30:17;;;;;;;9.87;3.07;;;;;10.20;100654.00;;;;5036387;28;20724;-70
2023/12/30 13:33:08;;;;;;;8.93;2.80;;;;;10.40;100643.00;;;;5040673;28;20232;-70
2023/12/30 13:35:56;;;;;;;8.67;2.93;;;;;10.30;100646.00;;;;5040009;28;20299;-70
2023/12/30 13:38:45;;;;;;;6.20;3.40;;;;;10.30;100641.00;;;;5032072;28;20232;-70
2023/12/30 13:41:31;;;;;;;7.70;3.63;;;;;10.30;100652.00;;;;5044343;28;20232;-71
2023/12/30 13:44:18;;;;;;;7.37;2.60;;;;;10.30;100638.00;;;;5032871;28;20627;-72
2023/12/30 13:47:35;;;;;;;7.00;3.00;;;;;10.30;100641.00;;;;5038070;28;20840;-71
2023/12/30 13:50:30;;;;;;;3.73;2.40;;;;;10.30;100635.00;;;;5041656;28;20231;-72
2023/12/30 13:53:17;;;;;;;4.60;2.63;;;;;10.30;100624.00;;;;5036569;28;20231;-73
2023/12/30 13:56:06;;;;;;;4.73;2.57;;;;;10.40;100638.00;;;;5040135;28;20298;-71